Time;durP1;ratioP1;P1;durP2;ratioP2;P2;SDS_P1;SDS_P2;PMS_P1;PMS_P2;Temp;Humidity;BMP_temperature;BMP_pressure;BME280_temperature;BME280_humidity;BME280_pressure;Samples;Min_cycle;Max_cycle;Signal;HPM_P1;HPM_P2
2021/05/01 00:00:59;;;;;;;7.80;7.07;;;14.50;96.10;;;;;;5053919;28;20025;-79
2021/05/01 00:03:25;;;;;;;8.02;6.65;;;14.50;96.10;;;;;;5054150;28;20479;-79
2021/05/01 00:05:51;;;;;;;10.25;7.53;;;14.50;96.10;;;;;;5053958;28;20448;-79
2021/05/01 00:08:17;;;;;;;10.15;7.55;;;14.50;96.00;;;;;;5054139;28;20379;-79
2021/05/01 00:10:42;;;;;;;11.00;7.22;;;14.50;96.10;;;;;;5052539;28;20048;-79
2021/05/01 00:13:08;;;;;;;7.65;6.35;;;14.50;96.00;;;;;;5053684;28;20486;-79
2021/05/01 00:15:34;;;;;;;10.45;7.38;;;14.50;96.00;;;;;;5053759;28;20029;-79
2021/05/01 00:18:00;;;;;;;8.05;6.78;;;14.50;95.90;;;;;;5052484;28;20364;-79
2021/05/01 00:20:25;;;;;;;8.75;7.20;;;14.50;95.90;;;;;;5052304;28;20383;-79
2021/05/01 00:22:51;;;;;;;9.88;7.20;;;14.50;95.90;;;;;;5052327;28;20053;-79
2021/05/01 00:25:17;;;;;;;8.93;7.45;;;14.50;95.90;;;;;;5053729;28;20467;-79
2021/05/01 00:27:42;;;;;;;9.15;6.93;;;14.50;95.90;;;;;;5053602;28;20025;-79
2021/05/01 00:30:09;;;;;;;9.07;7.43;;;14.50;95.80;;;;;;5052160;28;20021;-79
2021/05/01 00:32:34;;;;;;;10.07;6.82;;;14.50;95.90;;;;;;5053463;28;20025;-79
2021/05/01 00:35:02;;;;;;;8.02;6.53;;;14.50;96.00;;;;;;5052580;28;20025;-79
2021/05/01 00:37:27;;;;;;;7.72;6.10;;;14.40;95.90;;;;;;5053645;28;20494;-79
2021/05/01 00:39:53;;;;;;;7.78;6.40;;;14.30;95.90;;;;;;5053765;28;20025;-79
2021/05/01 00:42:19;;;;;;;8.52;6.10;;;14.40;95.90;;;;;;5053359;28;20074;-79
2021/05/01 00:44:44;;;;;;;6.85;5.55;;;14.30;95.90;;;;;;5053526;28;20048;-79
2021/05/01 00:47:10;;;;;;;6.90;5.88;;;14.30;95.80;;;;;;5052131;28;20056;-79
2021/05/01 00:49:36;;;;;;;7.22;5.32;;;14.30;95.70;;;;;;5053430;28;20045;-79
2021/05/01 00:52:01;;;;;;;5.70;5.10;;;14.20;95.80;;;;;;5052090;28;20025;-79
2021/05/01 00:54:27;;;;;;;6.10;5.50;;;14.20;95.70;;;;;;5053513;28;20524;-79
2021/05/01 00:56:54;;;;;;;10.23;6.32;;;14.20;95.70;;;;;;5057068;28;20032;-74
2021/05/01 00:59:19;;;;;;;8.32;6.70;;;14.20;95.90;;;;;;5057032;28;20356;-74
2021/05/01 01:01:49;;;;;;;7.13;6.38;;;14.10;96.00;;;;;;5057050;28;20032;-74
2021/05/01 01:04:15;;;;;;;7.22;6.53;;;14.20;95.90;;;;;;5056932;28;20090;-74
2021/05/01 01:06:41;;;;;;;8.98;6.78;;;14.10;95.90;;;;;;5056947;28;20033;-74
2021/05/01 01:09:07;;;;;;;8.00;6.68;;;14.10;95.90;;;;;;5056742;28;20390;-74
2021/05/01 01:11:33;;;;;;;9.93;7.78;;;14.10;96.00;;;;;;5055602;28;20379;-74
2021/05/01 01:14:02;;;;;;;11.20;8.35;;;14.10;96.00;;;;;;5056879;28;20033;-73
2021/05/01 01:16:29;;;;;;;8.98;7.70;;;14.00;96.10;;;;;;5056781;28;20021;-74
2021/05/01 01:18:56;;;;;;;8.60;6.93;;;13.90;96.00;;;;;;5056467;28;20025;-74
2021/05/01 01:21:22;;;;;;;8.48;6.78;;;13.90;96.10;;;;;;5055286;28;20481;-74
2021/05/01 01:23:48;;;;;;;10.35;8.10;;;13.90;96.10;;;;;;5056456;28;20029;-74
2021/05/01 01:26:14;;;;;;;8.98;7.75;;;13.80;96.10;;;;;;5056649;28;20482;-74
2021/05/01 01:28:40;;;;;;;8.60;7.03;;;13.90;96.20;;;;;;5055087;28;20026;-74
2021/05/01 01:31:06;;;;;;;12.40;8.55;;;13.80;96.30;;;;;;5056327;28;20048;-74
2021/05/01 01:33:32;;;;;;;10.65;8.25;;;13.70;96.40;;;;;;5054966;28;20051;-74
2021/05/01 01:35:58;;;;;;;14.32;10.32;;;13.70;96.30;;;;;;5056425;28;20421;-74
2021/05/01 01:38:24;;;;;;;13.93;10.32;;;13.70;96.70;;;;;;5056037;28;20021;-74
2021/05/01 01:40:49;;;;;;;9.93;8.05;;;13.70;96.40;;;;;;5056320;28;20115;-74
2021/05/01 01:43:15;;;;;;;10.50;7.63;;;13.70;96.40;;;;;;5056378;28;20021;-74
2021/05/01 01:45:41;;;;;;;10.82;9.07;;;13.70;96.30;;;;;;5056770;28;20032;-74
2021/05/01 01:48:07;;;;;;;8.20;7.13;;;13.70;96.50;;;;;;5055571;28;20025;-74
2021/05/01 01:50:33;;;;;;;10.13;8.35;;;13.60;96.40;;;;;;5056344;28;20049;-74
2021/05/01 01:52:59;;;;;;;12.95;8.63;;;13.60;96.70;;;;;;5056200;28;20398;-74
2021/05/01 01:55:25;;;;;;;10.70;8.40;;;13.50;96.60;;;;;;5056034;28;20497;-74
2021/05/01 01:57:52;;;;;;;11.48;8.50;;;13.50;96.70;;;;;;5056421;28;20100;-74
2021/05/01 02:00:26;;;;;;;9.77;7.53;;;13.50;96.60;;;;;;5055245;28;20032;-74
2021/05/01 02:02:52;;;;;;;9.90;8.05;;;13.50;96.60;;;;;;5056516;28;20100;-74
2021/05/01 02:05:18;;;;;;;9.63;8.10;;;13.50;96.60;;;;;;5056559;28;20499;-74
2021/05/01 02:07:44;;;;;;;8.77;7.30;;;13.40;96.60;;;;;;5055894;28;20025;-74
2021/05/01 02:10:11;;;;;;;8.18;7.07;;;13.40;96.70;;;;;;5054777;28;20021;-74
2021/05/01 02:12:38;;;;;;;9.20;7.63;;;13.30;96.70;;;;;;5054711;28;20112;-74
2021/05/01 02:15:22;;;;;;;8.50;7.28;;;13.30;96.70;;;;;;5055594;28;20025;-74
2021/05/01 02:17:50;;;;;;;8.82;7.75;;;13.30;96.70;;;;;;5055870;28;20076;-74
2021/05/01 02:20:19;;;;;;;9.43;7.55;;;13.20;96.80;;;;;;5055237;28;20020;-74
2021/05/01 02:22:45;;;;;;;8.40;7.35;;;13.20;96.90;;;;;;5055674;28;20028;-74
2021/05/01 02:25:12;;;;;;;9.73;8.23;;;13.10;96.90;;;;;;5054443;28;20021;-74
2021/05/01 02:27:39;;;;;;;10.30;8.15;;;13.10;96.90;;;;;;5055644;28;20502;-74
2021/05/01 02:30:07;;;;;;;15.23;12.02;;;13.00;96.90;;;;;;5054958;28;20032;-74
2021/05/01 02:32:32;;;;;;;15.40;13.05;;;13.00;97.00;;;;;;5055683;28;20443;-74
2021/05/01 02:34:58;;;;;;;11.88;10.02;;;12.90;97.00;;;;;;5055603;28;20048;-74
2021/05/01 02:37:24;;;;;;;11.30;8.55;;;12.80;97.10;;;;;;5055744;28;20032;-74
2021/05/01 02:39:49;;;;;;;11.63;9.88;;;12.70;97.00;;;;;;5055793;28;20363;-74
2021/05/01 02:42:15;;;;;;;11.45;8.75;;;12.70;97.10;;;;;;5055585;28;20458;-74
2021/05/01 02:44:41;;;;;;;13.57;10.52;;;12.70;97.10;;;;;;5054851;28;20033;-74
2021/05/01 02:47:06;;;;;;;13.75;12.25;;;12.70;97.10;;;;;;5054896;28;20471;-73
2021/05/01 02:49:32;;;;;;;13.43;11.38;;;12.60;97.10;;;;;;5054929;28;20051;-74
2021/05/01 02:51:58;;;;;;;15.13;12.73;;;12.60;97.10;;;;;;5054760;28;20108;-74
2021/05/01 02:54:24;;;;;;;14.15;11.90;;;12.70;97.10;;;;;;5054669;28;20029;-74
2021/05/01 02:56:50;;;;;;;15.93;13.13;;;12.70;97.20;;;;;;5053788;28;20458;-74
2021/05/01 02:59:16;;;;;;;15.75;12.68;;;12.70;97.10;;;;;;5053593;28;20031;-74
2021/05/01 03:01:41;;;;;;;17.17;12.82;;;12.70;97.10;;;;;;5054611;28;20029;-74
2021/05/01 03:04:07;;;;;;;16.95;11.45;;;12.70;97.20;;;;;;5054596;28;20025;-74
2021/05/01 03:06:33;;;;;;;14.05;10.95;;;12.70;97.20;;;;;;5054335;28;20018;-74
2021/05/01 03:08:59;;;;;;;15.98;12.63;;;12.70;97.20;;;;;;5054441;28;20053;-74
2021/05/01 03:11:24;;;;;;;12.98;10.93;;;12.70;97.20;;;;;;5054192;28;20052;-74
2021/05/01 03:13:50;;;;;;;16.92;12.93;;;12.70;97.40;;;;;;5054523;28;20029;-73
2021/05/01 03:16:16;;;;;;;13.60;10.27;;;12.70;97.80;;;;;;5054075;28;20024;-73
2021/05/01 03:18:41;;;;;;;12.95;10.30;;;12.70;97.60;;;;;;5053441;28;20032;-74
2021/05/01 03:21:07;;;;;;;13.88;10.90;;;12.70;97.50;;;;;;5054170;28;20025;-74
2021/05/01 03:23:33;;;;;;;18.67;14.82;;;12.70;97.40;;;;;;5054019;28;20060;-74
2021/05/01 03:25:59;;;;;;;24.52;18.25;;;12.70;97.60;;;;;;5052781;28;20020;-74
2021/05/01 03:28:24;;;;;;;26.60;19.20;;;12.80;97.70;;;;;;5054105;28;20492;-74
2021/05/01 03:30:50;;;;;;;27.88;21.83;;;12.80;97.80;;;;;;5054175;28;20045;-74
2021/05/01 03:33:17;;;;;;;27.42;20.25;;;12.90;97.60;;;;;;5053921;28;20021;-74
2021/05/01 03:35:43;;;;;;;28.38;22.05;;;12.90;97.90;;;;;;5054051;28;20021;-74
2021/05/01 03:38:09;;;;;;;27.55;22.13;;;12.90;97.80;;;;;;5048881;28;20021;-74
2021/05/01 03:40:34;;;;;;;27.60;22.27;;;13.00;97.70;;;;;;5065882;28;20030;-74
2021/05/01 03:43:00;;;;;;;27.70;20.98;;;13.10;97.80;;;;;;5034726;28;20026;-74
2021/05/01 03:45:26;;;;;;;30.50;22.83;;;13.10;97.90;;;;;;5034916;28;20427;-74
2021/05/01 03:47:52;;;;;;;90.53;66.63;;;13.20;98.10;;;;;;5066228;28;20064;-74
2021/05/01 03:50:17;;;;;;;47.58;37.17;;;13.20;98.10;;;;;;5034321;28;20472;-74
2021/05/01 03:52:43;;;;;;;32.75;25.77;;;13.30;97.90;;;;;;5034278;28;20464;-73
2021/05/01 03:55:09;;;;;;;32.33;24.20;;;13.30;98.00;;;;;;5034458;28;20052;-74
2021/05/01 03:57:34;;;;;;;52.50;41.03;;;13.40;97.90;;;;;;5034091;28;20017;-73
2021/05/01 04:00:03;;;;;;;62.28;44.60;;;13.40;98.10;;;;;;5033263;28;20030;-73
2021/05/01 04:02:28;;;;;;;62.05;47.55;;;13.50;98.30;;;;;;5032569;28;20026;-73
2021/05/01 04:04:54;;;;;;;35.65;24.73;;;13.60;98.10;;;;;;5034186;28;20025;-74
2021/05/01 04:07:20;;;;;;;24.80;18.75;;;13.60;97.90;;;;;;5033949;28;20026;-74
2021/05/01 04:09:45;;;;;;;22.58;16.88;;;13.70;97.80;;;;;;5034334;28;20035;-74
2021/05/01 04:12:11;;;;;;;26.02;19.02;;;13.70;97.90;;;;;;5034348;28;20021;-74
2021/05/01 04:14:37;;;;;;;24.70;18.13;;;13.80;97.90;;;;;;5034037;28;20119;-73
2021/05/01 04:17:02;;;;;;;24.17;18.08;;;13.80;97.90;;;;;;5034156;28;20104;-73
2021/05/01 04:19:28;;;;;;;32.38;21.30;;;13.90;97.90;;;;;;5043703;28;20032;-74
2021/05/01 04:21:56;;;;;;;23.10;16.75;;;13.90;97.80;;;;;;5053653;28;20025;-74
2021/05/01 04:24:22;;;;;;;25.30;17.02;;;13.90;97.80;;;;;;5052313;28;20048;-74
2021/05/01 04:26:47;;;;;;;27.75;20.13;;;14.00;97.80;;;;;;5054236;28;20447;-76
2021/05/01 04:29:13;;;;;;;20.52;16.02;;;14.00;97.60;;;;;;5052984;28;20021;-74
2021/05/01 04:31:39;;;;;;;25.45;18.48;;;14.10;97.60;;;;;;5052114;28;20135;-73
2021/05/01 04:34:04;;;;;;;22.17;15.88;;;14.20;97.70;;;;;;5052449;28;20028;-74
2021/05/01 04:36:30;;;;;;;20.73;14.68;;;14.20;97.40;;;;;;5053447;28;20056;-75
2021/05/01 04:38:56;;;;;;;18.17;14.23;;;14.20;97.30;;;;;;5052206;28;20025;-74
2021/05/01 04:41:21;;;;;;;16.52;13.32;;;14.30;97.30;;;;;;5053899;28;20028;-73
2021/05/01 04:43:47;;;;;;;23.48;16.60;;;14.30;97.20;;;;;;5051642;28;20037;-73
2021/05/01 04:46:17;;;;;;;40.50;26.75;;;14.40;97.10;;;;;;5051652;28;20107;-73
2021/05/01 04:48:43;;;;;;;21.70;14.65;;;14.40;96.90;;;;;;5053128;28;20017;-73
2021/05/01 04:51:09;;;;;;;46.30;29.02;;;14.50;96.90;;;;;;5052812;28;20060;-74
2021/05/01 04:53:34;;;;;;;30.45;20.80;;;14.50;96.80;;;;;;5053132;28;20082;-73
2021/05/01 04:56:00;;;;;;;31.52;20.05;;;14.60;96.90;;;;;;5052647;28;20021;-73
2021/05/01 04:58:26;;;;;;;14.95;10.70;;;14.60;96.80;;;;;;5051519;28;20021;-74
2021/05/01 05:00:51;;;;;;;13.95;9.75;;;14.70;96.50;;;;;;5053081;28;20021;-74
2021/05/01 05:03:17;;;;;;;12.60;9.07;;;14.80;96.30;;;;;;5052508;28;20024;-73
2021/05/01 05:05:43;;;;;;;12.10;9.15;;;14.90;96.30;;;;;;5051403;28;20017;-73
2021/05/01 05:08:08;;;;;;;12.77;8.77;;;14.90;96.20;;;;;;5052675;28;20052;-73
2021/05/01 05:10:34;;;;;;;10.35;8.50;;;15.00;96.00;;;;;;5052670;28;20472;-74
2021/05/01 05:13:00;;;;;;;11.00;8.55;;;15.10;95.90;;;;;;5052798;28;20471;-74
2021/05/01 05:15:29;;;;;;;10.27;7.95;;;15.20;95.50;;;;;;5052513;28;20079;-74
2021/05/01 05:17:54;;;;;;;9.25;7.50;;;15.20;95.30;;;;;;5051622;28;20483;-74
2021/05/01 05:20:20;;;;;;;11.18;8.40;;;15.30;95.30;;;;;;5051526;28;20079;-73
2021/05/01 05:22:46;;;;;;;10.30;8.10;;;15.30;95.40;;;;;;5051272;28;20052;-73
2021/05/01 05:25:12;;;;;;;12.10;10.25;;;15.40;95.30;;;;;;5051661;28;20021;-73
2021/05/01 05:27:38;;;;;;;12.05;9.80;;;15.40;95.30;;;;;;5051062;28;20069;-74
2021/05/01 05:30:04;;;;;;;11.85;8.45;;;15.50;95.30;;;;;;5051088;28;20379;-74
2021/05/01 05:32:30;;;;;;;12.73;9.82;;;15.50;95.30;;;;;;5052433;28;20024;-74
2021/05/01 05:34:55;;;;;;;13.30;9.93;;;15.60;94.90;;;;;;5052107;28;20014;-73
2021/05/01 05:37:21;;;;;;;12.45;10.38;;;15.60;95.00;;;;;;5050847;28;20024;-73
2021/05/01 05:39:49;;;;;;;17.65;10.55;;;15.60;95.00;;;;;;5050707;28;20116;-73
2021/05/01 05:42:15;;;;;;;13.88;10.80;;;15.50;94.90;;;;;;5055146;28;20017;-73
2021/05/01 05:44:44;;;;;;;12.48;9.88;;;15.50;94.90;;;;;;5056277;28;20025;-73
2021/05/01 05:47:11;;;;;;;14.02;10.20;;;15.50;95.10;;;;;;5056388;28;20021;-73
2021/05/01 05:49:37;;;;;;;12.18;8.95;;;15.60;95.00;;;;;;5056151;28;20052;-74
2021/05/01 05:52:03;;;;;;;14.23;9.23;;;15.70;94.90;;;;;;5056452;28;20029;-73
2021/05/01 05:54:29;;;;;;;11.32;8.90;;;15.70;94.70;;;;;;5056283;28;20434;-73
2021/05/01 05:56:54;;;;;;;10.80;9.52;;;15.70;94.80;;;;;;5056090;28;20025;-73
2021/05/01 05:59:20;;;;;;;14.45;8.73;;;15.70;94.60;;;;;;5056102;28;20065;-72
2021/05/01 06:01:48;;;;;;;11.68;8.93;;;15.80;94.60;;;;;;5055930;28;20451;-72
2021/05/01 06:04:21;;;;;;;11.25;9.50;;;15.80;94.30;;;;;;5056069;28;20414;-73
2021/05/01 06:07:00;;;;;;;10.30;8.77;;;15.80;94.40;;;;;;5036176;28;20541;-72
2021/05/01 06:09:27;;;;;;;11.52;9.40;;;15.80;94.40;;;;;;5035916;28;20026;-72
2021/05/01 06:11:54;;;;;;;11.55;9.27;;;15.80;94.30;;;;;;5035896;28;20060;-70
2021/05/01 06:14:20;;;;;;;12.90;9.13;;;15.80;94.10;;;;;;5035973;28;20049;-70
2021/05/01 06:16:46;;;;;;;12.55;9.23;;;15.90;94.20;;;;;;5035792;28;20025;-71
2021/05/01 06:19:12;;;;;;;11.25;9.10;;;16.00;94.30;;;;;;5036490;28;20026;-70
2021/05/01 06:21:38;;;;;;;10.32;8.82;;;16.00;94.20;;;;;;5039713;28;20076;-71
2021/05/01 06:24:06;;;;;;;11.57;9.50;;;16.10;94.10;;;;;;5055769;28;20410;-71
2021/05/01 06:26:36;;;;;;;10.18;7.60;;;16.20;93.90;;;;;;5055799;28;20040;-70
2021/05/01 06:29:04;;;;;;;10.10;8.57;;;16.20;93.60;;;;;;5055648;28;20040;-71
2021/05/01 06:31:33;;;;;;;11.65;9.05;;;16.20;93.70;;;;;;5053739;28;20171;-71
2021/05/01 06:33:59;;;;;;;11.80;8.55;;;16.20;93.80;;;;;;5055410;28;20025;-71
2021/05/01 06:36:25;;;;;;;10.05;7.65;;;16.30;93.60;;;;;;5055267;28;20032;-71
2021/05/01 06:38:53;;;;;;;8.88;7.20;;;16.30;93.50;;;;;;5055606;28;20355;-71
2021/05/01 06:41:21;;;;;;;9.00;6.70;;;16.30;93.20;;;;;;5055407;28;20017;-71
2021/05/01 06:44:03;;;;;;;7.30;6.40;;;16.40;93.10;;;;;;5052239;28;20025;-71
2021/05/01 06:46:33;;;;;;;8.23;6.63;;;16.40;92.30;;;;;;5053410;28;20029;-71
2021/05/01 06:49:03;;;;;;;7.78;6.03;;;16.50;92.50;;;;;;5053606;28;20029;-71
2021/05/01 06:51:30;;;;;;;7.13;5.90;;;16.60;92.50;;;;;;5053702;28;20151;-71
2021/05/01 06:53:59;;;;;;;7.20;6.30;;;16.60;92.00;;;;;;5052916;28;20033;-72
2021/05/01 06:56:25;;;;;;;8.50;7.05;;;16.70;92.20;;;;;;5052665;28;20471;-72
2021/05/01 06:58:52;;;;;;;6.40;5.60;;;16.70;92.00;;;;;;5053853;28;20029;-72
2021/05/01 07:01:18;;;;;;;8.48;6.43;;;16.70;91.60;;;;;;5053524;28;20025;-72
2021/05/01 07:03:46;;;;;;;7.05;5.28;;;16.70;91.60;;;;;;5053295;28;20463;-71
2021/05/01 07:06:14;;;;;;;7.55;6.25;;;16.80;91.50;;;;;;5053455;28;20028;-71
2021/05/01 07:08:40;;;;;;;7.70;6.32;;;16.80;91.20;;;;;;5050624;28;20017;-71
2021/05/01 07:11:07;;;;;;;7.53;5.32;;;16.80;91.60;;;;;;5052393;28;20032;-71
2021/05/01 07:13:33;;;;;;;7.63;6.57;;;16.90;91.10;;;;;;5052912;28;20029;-71
2021/05/01 07:16:02;;;;;;;7.43;6.35;;;17.00;91.20;;;;;;5052483;28;20083;-71
2021/05/01 07:18:32;;;;;;;7.72;5.90;;;17.00;90.40;;;;;;5051340;28;20039;-71
2021/05/01 07:20:59;;;;;;;7.75;6.68;;;17.10;90.70;;;;;;5052424;28;20066;-71
2021/05/01 07:23:25;;;;;;;8.45;6.38;;;17.10;90.60;;;;;;5051168;28;20025;-71
2021/05/01 07:25:52;;;;;;;9.57;6.50;;;17.20;90.20;;;;;;5052377;28;20087;-71
2021/05/01 07:28:23;;;;;;;8.65;6.38;;;17.30;90.00;;;;;;5052749;28;20546;-71
2021/05/01 07:30:52;;;;;;;8.68;6.63;;;17.40;90.30;;;;;;5052740;28;20490;-70
2021/05/01 07:33:27;;;;;;;6.80;5.87;;;17.50;90.30;;;;;;5052560;28;20032;-71
2021/05/01 07:36:01;;;;;;;7.70;5.95;;;17.60;90.20;;;;;;5052417;28;20028;-70
2021/05/01 07:38:28;;;;;;;8.95;5.80;;;17.70;90.00;;;;;;5051079;28;20029;-70
2021/05/01 07:40:57;;;;;;;7.72;6.20;;;17.80;87.50;;;;;;5051672;28;20422;-70
2021/05/01 07:43:25;;;;;;;7.45;6.38;;;17.70;84.90;;;;;;5052770;28;20039;-71
2021/05/01 07:45:54;;;;;;;8.05;5.93;;;17.70;85.30;;;;;;5053760;28;20428;-71
2021/05/01 07:48:21;;;;;;;7.93;5.90;;;17.70;85.80;;;;;;5053926;28;20430;-72
2021/05/01 07:50:47;;;;;;;14.93;7.40;;;17.80;86.40;;;;;;5051747;28;20181;-72
2021/05/01 07:53:13;;;;;;;13.35;7.30;;;17.80;86.00;;;;;;5053988;28;20021;-71
2021/05/01 07:55:40;;;;;;;8.63;6.68;;;17.90;85.20;;;;;;5054630;28;20025;-71
2021/05/01 07:58:06;;;;;;;7.30;6.53;;;18.00;83.10;;;;;;5054318;28;20098;-71
2021/05/01 08:00:32;;;;;;;8.13;6.00;;;18.00;82.10;;;;;;5064812;28;20440;-72
2021/05/01 08:03:00;;;;;;;13.52;7.80;;;18.10;81.60;;;;;;5074252;28;20137;-72
2021/05/01 08:05:25;;;;;;;9.23;6.80;;;18.10;81.60;;;;;;5059905;28;20107;-75
2021/05/01 08:07:52;;;;;;;8.18;6.55;;;18.20;80.90;;;;;;5053920;28;20434;-73
2021/05/01 08:10:18;;;;;;;8.65;6.88;;;18.20;79.50;;;;;;5053811;28;20076;-72
2021/05/01 08:12:44;;;;;;;9.40;7.50;;;18.30;80.70;;;;;;5053862;28;20371;-72
2021/05/01 08:15:10;;;;;;;8.07;6.32;;;18.40;80.70;;;;;;5053737;28;20029;-73
2021/05/01 08:17:38;;;;;;;10.85;8.43;;;18.40;80.60;;;;;;5053525;28;20032;-72
2021/05/01 08:20:04;;;;;;;12.70;10.02;;;18.50;81.00;;;;;;5052091;28;20025;-71
2021/05/01 08:22:30;;;;;;;9.77;7.45;;;18.50;81.20;;;;;;5053250;28;20025;-72
2021/05/01 08:24:56;;;;;;;12.35;9.40;;;18.60;79.40;;;;;;5053257;28;20478;-72
2021/05/01 08:27:22;;;;;;;8.68;7.30;;;18.70;80.30;;;;;;5052173;28;20179;-72
2021/05/01 08:29:48;;;;;;;8.95;7.07;;;18.70;79.60;;;;;;5051156;28;20029;-72
2021/05/01 08:32:14;;;;;;;7.80;6.55;;;18.80;77.80;;;;;;5053173;28;20025;-72
2021/05/01 08:34:40;;;;;;;8.55;6.85;;;18.80;78.00;;;;;;5052028;28;20040;-72
2021/05/01 08:37:06;;;;;;;7.75;6.88;;;18.80;77.70;;;;;;5052554;28;20036;-72
2021/05/01 08:39:32;;;;;;;8.35;7.00;;;18.80;78.70;;;;;;5053236;28;20029;-71
2021/05/01 08:41:57;;;;;;;8.20;6.70;;;18.90;79.70;;;;;;5053312;28;20033;-72
2021/05/01 08:44:23;;;;;;;7.95;7.15;;;18.90;80.00;;;;;;5050775;28;20107;-71
2021/05/01 08:46:49;;;;;;;8.18;7.15;;;19.00;80.40;;;;;;5050927;28;20025;-71
2021/05/01 08:49:15;;;;;;;9.63;6.68;;;19.00;78.90;;;;;;5051654;28;20075;-74
2021/05/01 08:51:43;;;;;;;8.85;7.03;;;19.10;77.00;;;;;;5052060;28;20075;-73
2021/05/01 08:54:13;;;;;;;7.03;6.32;;;19.10;76.30;;;;;;5051831;28;20136;-74
2021/05/01 08:56:39;;;;;;;;;;;19.10;76.90;;;;;;5050544;28;20021;-74
2021/05/01 08:59:05;;;;;;;8.27;6.40;;;19.10;78.40;;;;;;5051785;28;19996;-74
2021/05/01 09:01:31;;;;;;;8.35;7.45;;;19.20;78.20;;;;;;5052061;28;20056;-74
2021/05/01 09:03:58;;;;;;;8.60;7.68;;;19.20;79.30;;;;;;5050761;28;20060;-73
2021/05/01 09:06:25;;;;;;;9.30;7.45;;;19.20;75.80;;;;;;5051936;28;20486;-73
2021/05/01 09:09:02;;;;;;;7.65;6.65;;;19.30;77.10;;;;;;5050708;28;20128;-73
2021/05/01 09:11:46;;;;;;;7.53;6.63;;;19.30;77.90;;;;;;5051211;28;20021;-73
2021/05/01 09:14:24;;;;;;;12.02;8.02;;;19.40;76.60;;;;;;5057327;28;20079;-73
2021/05/01 09:17:02;;;;;;;9.27;7.55;;;19.40;74.60;;;;;;5053799;28;20024;-74
2021/05/01 09:19:32;;;;;;;8.95;7.40;;;19.40;75.80;;;;;;5054724;28;20117;-78
2021/05/01 09:22:07;;;;;;;10.15;7.50;;;19.50;77.00;;;;;;5055213;28;20463;-80
2021/05/01 09:24:34;;;;;;;7.38;6.40;;;19.50;76.30;;;;;;5056702;28;20095;-79
2021/05/01 09:27:00;;;;;;;9.50;7.40;;;19.60;76.80;;;;;;5055023;28;20356;-78
2021/05/01 09:29:37;;;;;;;8.48;6.18;;;19.60;75.20;;;;;;5056538;28;20044;-77
2021/05/01 09:32:05;;;;;;;6.72;6.13;;;19.70;75.90;;;;;;5055728;28;20051;-75
2021/05/01 09:34:44;;;;;;;9.80;6.97;;;19.80;76.80;;;;;;5054912;28;20037;-73
2021/05/01 09:37:10;;;;;;;8.98;6.32;;;19.80;74.10;;;;;;5053554;28;20025;-73
2021/05/01 09:39:50;;;;;;;9.75;6.70;;;20.00;71.60;;;;;;5054452;28;20122;-73
2021/05/01 09:42:18;;;;;;;7.82;6.13;;;20.00;72.70;;;;;;5055133;28;20040;-73
2021/05/01 09:44:45;;;;;;;6.32;5.65;;;20.10;73.40;;;;;;5056570;28;20346;-72
2021/05/01 09:47:19;;;;;;;9.68;6.75;;;20.20;73.20;;;;;;5054795;28;20470;-73
2021/05/01 09:49:46;;;;;;;8.38;7.32;;;20.10;68.80;;;;;;5056131;28;20077;-78
2021/05/01 09:52:16;;;;;;;8.40;6.25;;;20.20;74.00;;;;;;5056160;28;20032;-78
2021/05/01 09:54:44;;;;;;;9.83;6.90;;;20.20;72.20;;;;;;5056085;28;20040;-78
2021/05/01 09:57:12;;;;;;;7.13;6.43;;;20.30;73.60;;;;;;5056269;28;20017;-76
2021/05/01 09:59:48;;;;;;;9.20;6.93;;;20.40;73.40;;;;;;5054567;28;20067;-76
2021/05/01 10:02:23;;;;;;;11.35;9.10;;;20.40;70.60;;;;;;5055797;28;20052;-73
2021/05/01 10:05:08;;;;;;;8.85;7.00;;;20.40;70.40;;;;;;5056566;28;20024;-73
2021/05/01 10:07:37;;;;;;;9.52;6.47;;;20.50;69.10;;;;;;5055591;28;20127;-74
2021/05/01 10:10:04;;;;;;;6.85;6.15;;;20.60;70.00;;;;;;5056184;28;20013;-74
2021/05/01 10:12:37;;;;;;;7.80;6.20;;;20.60;70.70;;;;;;5055962;28;20020;-72
2021/05/01 10:15:13;;;;;;;8.13;6.50;;;20.70;69.30;;;;;;5056217;28;20051;-82
2021/05/01 10:17:39;;;;;;;8.52;6.75;;;20.80;71.20;;;;;;5055943;28;20046;-75
2021/05/01 10:20:07;;;;;;;6.82;6.10;;;20.90;71.60;;;;;;5055002;28;20100;-75
2021/05/01 10:22:46;;;;;;;7.68;6.53;;;20.90;72.50;;;;;;5044845;28;20115;-75
2021/05/01 10:25:18;;;;;;;7.25;5.78;;;20.90;65.60;;;;;;5054290;28;20394;-75
2021/05/01 10:27:53;;;;;;;7.80;6.38;;;20.90;68.50;;;;;;5055211;28;20021;-73
2021/05/01 10:30:32;;;;;;;6.57;5.90;;;21.00;71.60;;;;;;5053917;28;20025;-73
2021/05/01 10:33:33;;;;;;;7.80;6.30;;;21.00;70.40;;;;;;5054377;28;20032;-73
2021/05/01 10:36:05;;;;;;;8.75;6.93;;;21.20;68.90;;;;;;5052606;28;20041;-73
2021/05/01 10:38:32;;;;;;;5.10;4.60;;;21.10;67.80;;;;;;5053756;28;20024;-75
2021/05/01 10:41:03;;;;;;;6.78;4.35;;;21.20;66.40;;;;;;5055658;28;20115;-76
2021/05/01 10:43:31;;;;;;;8.05;3.97;;;21.20;63.30;;;;;;5048592;28;20106;-74
2021/05/01 10:46:06;;;;;;;4.13;3.70;;;21.10;60.20;;;;;;5054538;28;20024;-79
2021/05/01 10:48:48;;;;;;;6.10;4.88;;;21.10;60.10;;;;;;5055492;28;20021;-82
2021/05/01 10:51:21;;;;;;;4.75;4.30;;;21.00;58.80;;;;;;5053242;28;20131;-76
2021/05/01 10:54:04;;;;;;;5.20;4.70;;;21.00;60.90;;;;;;5054752;28;20479;-77
2021/05/01 10:56:30;;;;;;;6.43;5.07;;;21.00;61.90;;;;;;5053664;28;20029;-77
2021/05/01 10:58:56;;;;;;;28.98;12.20;;;21.20;61.80;;;;;;5054999;28;20036;-80
2021/05/01 11:01:33;;;;;;;28.60;15.50;;;21.20;62.40;;;;;;5054555;28;20035;-81
2021/05/01 11:04:01;;;;;;;6.88;5.32;;;21.20;61.60;;;;;;5055025;28;20031;-83
2021/05/01 11:06:29;;;;;;;7.30;5.50;;;21.20;60.00;;;;;;5055013;28;20025;-83
2021/05/01 11:08:58;;;;;;;7.32;5.00;;;21.20;61.00;;;;;;5054831;28;20044;-83
2021/05/01 11:11:34;;;;;;;6.60;4.82;;;21.20;61.50;;;;;;5054797;28;20031;-84
2021/05/01 11:14:14;;;;;;;7.35;5.03;;;21.30;62.20;;;;;;5053560;28;20029;-79
2021/05/01 11:16:58;;;;;;;5.27;4.67;;;21.30;61.20;;;;;;5054786;28;20100;-79
2021/05/01 11:19:28;;;;;;;7.00;5.20;;;21.40;61.50;;;;;;5054899;28;20017;-78
2021/05/01 11:21:55;;;;;;;6.03;5.18;;;21.40;60.90;;;;;;5054728;28;20028;-76
2021/05/01 11:24:20;;;;;;;9.35;5.20;;;21.40;59.40;;;;;;5054591;28;20025;-78
2021/05/01 11:26:47;;;;;;;7.63;5.40;;;21.50;59.00;;;;;;5054713;28;20029;-74
2021/05/01 11:29:14;;;;;;;5.80;4.75;;;21.40;58.10;;;;;;5052823;28;20013;-70
2021/05/01 11:31:43;;;;;;;5.55;4.70;;;21.50;59.50;;;;;;5052216;28;20033;-69
2021/05/01 11:34:11;;;;;;;5.50;4.95;;;21.60;58.50;;;;;;5052426;28;20084;-69
2021/05/01 11:36:46;;;;;;;7.03;4.95;;;21.80;60.80;;;;;;5052469;28;20087;-69
2021/05/01 11:39:14;;;;;;;10.73;4.68;;;22.00;60.70;;;;;;5052007;28;20024;-70
2021/05/01 11:41:43;;;;;;;4.95;4.45;;;22.10;58.90;;;;;;5052730;28;20460;-69
2021/05/01 11:44:10;;;;;;;6.18;4.40;;;22.20;59.00;;;;;;5054549;28;20083;-69
2021/05/01 11:46:46;;;;;;;5.95;4.60;;;22.20;58.40;;;;;;5054220;28;20024;-71
2021/05/01 11:49:14;;;;;;;5.15;4.65;;;22.40;56.20;;;;;;5053910;28;20021;-70
2021/05/01 11:51:58;;;;;;;5.30;4.80;;;22.40;58.50;;;;;;5054035;28;20028;-69
2021/05/01 11:54:48;;;;;;;5.80;4.63;;;22.50;56.90;;;;;;5054145;28;20040;-69
2021/05/01 11:57:26;;;;;;;8.10;6.03;;;22.60;58.50;;;;;;5054096;28;20028;-71
2021/05/01 11:59:52;;;;;;;5.60;5.05;;;22.60;56.00;;;;;;5054211;28;20028;-68
2021/05/01 12:02:38;;;;;;;5.78;5.10;;;22.80;58.40;;;;;;5054027;28;20029;-69
2021/05/01 12:05:19;;;;;;;5.35;4.85;;;22.90;56.80;;;;;;5054005;28;20025;-69
2021/05/01 12:07:52;;;;;;;6.30;5.57;;;22.90;56.50;;;;;;5053285;28;20013;-69
2021/05/01 12:10:20;;;;;;;8.38;5.15;;;22.60;55.90;;;;;;5053440;28;20025;-70
2021/05/01 12:12:59;;;;;;;5.78;4.82;;;22.50;55.50;;;;;;5052608;28;20024;-77
2021/05/01 12:15:36;;;;;;;6.22;4.60;;;22.40;56.00;;;;;;5053211;28;20017;-76
2021/05/01 12:18:03;;;;;;;7.90;4.75;;;22.70;57.00;;;;;;5053283;28;20024;-77
2021/05/01 12:20:30;;;;;;;6.75;4.97;;;22.80;56.10;;;;;;5053094;28;20013;-76
2021/05/01 12:23:06;;;;;;;5.45;4.60;;;22.80;55.00;;;;;;5051852;28;20386;-77
2021/05/01 12:25:34;;;;;;;7.05;5.00;;;23.00;56.30;;;;;;5052609;28;20013;-75
2021/05/01 12:28:00;;;;;;;5.43;4.78;;;22.90;54.00;;;;;;5052375;28;20112;-71
2021/05/01 12:30:38;;;;;;;7.20;6.28;;;23.10;54.90;;;;;;5052585;28;20021;-71
2021/05/01 12:33:26;;;;;;;7.68;6.20;;;23.20;55.10;;;;;;5052051;28;20074;-71
2021/05/01 12:36:07;;;;;;;9.70;6.57;;;23.40;54.00;;;;;;5053844;28;20074;-71
2021/05/01 12:38:35;;;;;;;13.38;9.38;;;23.60;56.60;;;;;;5051804;28;20029;-70
2021/05/01 12:41:10;;;;;;;11.93;9.80;;;23.90;56.40;;;;;;5052608;28;20054;-70
2021/05/01 12:43:42;;;;;;;9.60;8.27;;;23.90;55.90;;;;;;5051470;28;20029;-72
2021/05/01 12:46:13;;;;;;;11.85;9.98;;;24.20;56.40;;;;;;5051026;28;20021;-75